Time;durP1;ratioP1;P1;durP2;ratioP2;P2;SDS_P1;SDS_P2;PMS_P1;PMS_P2;Temp;Humidity;BMP_temperature;BMP_pressure;BME280_temperature;BME280_humidity;BME280_pressure;Samples;Min_cycle;Max_cycle;Signal;HPM_P1;HPM_P2
2022/10/22 00:02:04;;;;;;;;;;;;;;;9.60;63.07;96092.53;5114882;28;1004;-69
2022/10/22 00:04:30;;;;;;;;;;;;;;;9.33;64.09;96091.25;5114620;28;1980;-70
2022/10/22 00:06:56;;;;;;;;;;;;;;;9.09;64.69;96094.16;5114640;28;1044;-69
2022/10/22 00:09:23;;;;;;;;;;;;;;;9.02;65.71;96087.66;5113391;28;1064;-69
2022/10/22 00:11:49;;;;;;;;;;;;;;;9.38;63.88;96085.50;5114526;28;1045;-69
2022/10/22 00:14:15;;;;;;;;;;;;;;;9.47;63.23;96086.56;5114594;28;984;-70
2022/10/22 00:16:41;;;;;;;;;;;;;;;9.46;63.02;96091.03;5114614;28;1011;-70
2022/10/22 00:19:08;;;;;;;;;;;;;;;9.12;64.69;96088.56;5114440;28;1040;-69
2022/10/22 00:21:34;;;;;;;;;;;;;;;9.03;65.62;96089.34;5114403;28;1020;-69
2022/10/22 00:24:00;;;;;;;;;;;;;;;8.84;65.78;96083.84;5114512;28;1985;-69
2022/10/22 00:26:26;;;;;;;;;;;;;;;9.03;65.26;96081.34;5114208;28;1038;-69
2022/10/22 00:28:52;;;;;;;;;;;;;;;9.39;63.96;96084.56;5114306;28;1107;-69
2022/10/22 00:31:19;;;;;;;;;;;;;;;9.25;64.14;96087.53;5114226;28;976;-69
2022/10/22 00:33:45;;;;;;;;;;;;;;;9.14;64.22;96073.28;5114297;28;957;-69
2022/10/22 00:36:12;;;;;;;;;;;;;;;8.99;64.31;96075.44;5114008;28;1177;-70
2022/10/22 00:38:38;;;;;;;;;;;;;;;9.00;64.39;96073.59;5114157;28;1044;-70
2022/10/22 00:41:04;;;;;;;;;;;;;;;8.79;65.24;96074.41;5114093;28;1093;-69
2022/10/22 00:43:30;;;;;;;;;;;;;;;8.61;66.29;96073.25;5114039;28;1988;-69
2022/10/22 00:45:56;;;;;;;;;;;;;;;8.85;65.23;96082.88;5114434;28;1272;-69
2022/10/22 00:48:26;;;;;;;;;;;;;;;8.95;64.67;96078.47;5113915;28;1040;-69
2022/10/22 00:51:00;;;;;;;;;;;;;;;9.22;63.21;96075.31;5104144;28;1248;-70
2022/10/22 00:53:33;;;;;;;;;;;;;;;9.01;63.82;96080.63;5093454;28;1246;-70
2022/10/22 00:55:59;;;;;;;;;;;;;;;8.51;65.90;96073.19;5093564;28;1120;-69
2022/10/22 00:58:27;;;;;;;;;;;;;;;8.70;65.40;96071.66;5093529;28;985;-69
2022/10/22 01:00:53;;;;;;;;;;;;;;;8.97;64.42;96073.84;5093449;28;1112;-70
2022/10/22 01:03:19;;;;;;;;;;;;;;;8.95;64.14;96081.13;5093277;28;1076;-69
2022/10/22 01:05:51;;;;;;;;;;;;;;;8.75;64.26;96080.13;5093536;28;1983;-69
2022/10/22 01:08:40;;;;;;;;;;;;;;;8.64;64.73;96073.03;5125546;27;1124;-69
2022/10/22 01:11:09;;;;;;;;;;;;;;;8.96;63.68;96077.50;5064790;28;1170;-70
2022/10/22 01:14:04;;;;;;;;;;;;;;;8.62;64.73;96066.97;5093306;28;1190;-69
2022/10/22 01:16:40;;;;;;;;;;;;;;;8.72;64.67;96072.38;5079942;28;1194;-69
2022/10/22 01:19:25;;;;;;;;;;;;;;;8.61;65.48;96073.25;5093343;28;1124;-70
2022/10/22 01:21:54;;;;;;;;;;;;;;;8.87;65.12;96068.44;5093258;28;988;-69
2022/10/22 01:24:39;;;;;;;;;;;;;;;8.51;65.82;96059.00;5093059;28;1905;-70
2022/10/22 01:27:20;;;;;;;;;;;;;;;8.51;66.12;96056.34;5093183;28;1128;-70
2022/10/22 01:30:06;;;;;;;;;;;;;;;8.71;65.35;96049.38;5093249;28;1143;-70
2022/10/22 01:32:39;;;;;;;;;;;;;;;8.67;65.16;96048.78;5092984;28;1273;-69
2022/10/22 01:35:08;;;;;;;;;;;;;;;8.85;64.13;96053.56;5093358;28;1145;-69
2022/10/22 01:37:39;;;;;;;;;;;;;;;8.97;63.63;96048.03;5125953;28;1053;-69
2022/10/22 01:40:06;;;;;;;;;;;;;;;8.54;65.47;96037.44;5093304;28;968;-70
2022/10/22 01:42:32;;;;;;;;;;;;;;;8.27;66.77;96040.50;5093180;28;1002;-69
2022/10/22 01:44:58;;;;;;;;;;;;;;;8.48;66.52;96033.47;5092901;28;1995;-69
2022/10/22 01:47:36;;;;;;;;;;;;;;;8.78;65.17;96027.41;5093228;28;1024;-70
2022/10/22 01:50:05;;;;;;;;;;;;;;;8.81;64.27;96034.28;5095998;28;1248;-70
2022/10/22 01:52:41;;;;;;;;;;;;;;;8.86;63.76;96037.44;5112874;28;1108;-69
2022/10/22 01:55:15;;;;;;;;;;;;;;;8.77;63.66;96039.03;5113270;28;1112;-70
2022/10/22 01:57:58;;;;;;;;;;;;;;;8.89;63.49;96029.16;5113280;28;1045;-70
2022/10/22 02:00:24;;;;;;;;;;;;;;;8.97;62.66;96031.16;5113272;28;1076;-69
2022/10/22 02:03:06;;;;;;;;;;;;;;;8.47;64.81;96045.09;5113460;28;976;-70
2022/10/22 02:05:59;;;;;;;;;;;;;;;8.37;65.12;96046.78;5113391;28;1918;-70
2022/10/22 02:08:29;;;;;;;;;;;;;;;8.31;65.26;96056.13;5110289;28;1090;-70
2022/10/22 02:10:56;;;;;;;;;;;;;;;8.29;65.09;96049.22;5113417;28;1039;-70
2022/10/22 02:13:43;;;;;;;;;;;;;;;8.47;64.00;96044.25;5113225;28;1047;-69
2022/10/22 02:16:12;;;;;;;;;;;;;;;8.63;64.01;96046.47;5113109;28;1048;-70
2022/10/22 02:18:39;;;;;;;;;;;;;;;8.33;65.18;96043.53;5113054;28;1035;-70
2022/10/22 02:21:05;;;;;;;;;;;;;;;8.39;64.74;96048.34;5116675;28;1024;-70
2022/10/22 02:23:32;;;;;;;;;;;;;;;8.31;64.65;96044.59;5116823;28;1906;-70
2022/10/22 02:26:08;;;;;;;;;;;;;;;8.40;64.01;96036.72;5116807;28;969;-70
2022/10/22 02:28:37;;;;;;;;;;;;;;;8.40;64.03;96039.41;5116788;28;1027;-70
2022/10/22 02:31:07;;;;;;;;;;;;;;;8.54;63.66;96035.63;5116522;28;1057;-69
2022/10/22 02:33:37;;;;;;;;;;;;;;;8.53;63.49;96027.75;5116862;28;1083;-69
2022/10/22 02:36:03;;;;;;;;;;;;;;;8.21;65.46;96023.19;5116716;27;1039;-70
2022/10/22 02:38:30;;;;;;;;;;;;;;;8.00;66.52;96023.97;5116489;28;1039;-69
2022/10/22 02:40:57;;;;;;;;;;;;;;;8.31;64.93;96025.94;5116516;27;1019;-70
2022/10/22 02:43:23;;;;;;;;;;;;;;;7.94;66.56;96026.28;5116270;28;968;-70
2022/10/22 02:45:50;;;;;;;;;;;;;;;8.19;65.46;96030.47;5116159;28;1991;-70
2022/10/22 02:48:16;;;;;;;;;;;;;;;8.44;64.61;96039.16;5116139;28;1064;-70
2022/10/22 02:50:42;;;;;;;;;;;;;;;8.61;63.25;96041.28;5107868;28;1422;-69
2022/10/22 02:53:08;;;;;;;;;;;;;;;8.53;63.61;96043.72;5095501;28;1281;-69
2022/10/22 02:55:34;;;;;;;;;;;;;;;8.29;64.60;96050.09;5095694;28;1065;-69
2022/10/22 02:58:00;;;;;;;;;;;;;;;8.30;64.58;96050.94;5095680;28;1092;-70
2022/10/22 03:00:26;;;;;;;;;;;;;;;8.38;64.16;96051.13;5095480;28;1000;-70
2022/10/22 03:02:52;;;;;;;;;;;;;;;8.28;64.38;96052.88;5095617;28;1150;-70
2022/10/22 03:05:18;;;;;;;;;;;;;;;8.25;64.55;96053.94;5095768;28;1909;-69
2022/10/22 03:07:44;;;;;;;;;;;;;;;8.25;63.97;96059.28;5095481;28;1045;-70
2022/10/22 03:10:10;;;;;;;;;;;;;;;8.30;63.57;96061.59;5095448;28;1023;-69
2022/10/22 03:12:36;;;;;;;;;;;;;;;8.17;63.65;96070.56;5095413;28;1122;-69
2022/10/22 03:15:02;;;;;;;;;;;;;;;8.01;64.31;96078.09;5095255;28;1024;-69
2022/10/22 03:17:28;;;;;;;;;;;;;;;7.94;64.66;96076.88;5095206;28;1250;-69
2022/10/22 03:19:54;;;;;;;;;;;;;;;8.20;63.53;96065.00;5095424;28;1050;-69
2022/10/22 03:22:28;;;;;;;;;;;;;;;8.09;63.85;96065.00;5095214;28;997;-69
2022/10/22 03:24:57;;;;;;;;;;;;;;;8.10;64.06;96077.38;5095153;28;1993;-69
2022/10/22 03:27:23;;;;;;;;;;;;;;;8.27;63.01;96070.69;5095003;28;1052;-69
2022/10/22 03:29:51;;;;;;;;;;;;;;;8.16;63.68;96074.19;5094745;28;1023;-69
2022/10/22 03:32:17;;;;;;;;;;;;;;;8.18;63.53;96074.09;5095055;28;973;-69
2022/10/22 03:34:43;;;;;;;;;;;;;;;7.98;64.43;96068.53;5094936;28;1084;-68
2022/10/22 03:37:10;;;;;;;;;;;;;;;7.80;65.63;96056.69;5094777;28;1041;-70
2022/10/22 03:39:36;;;;;;;;;;;;;;;7.60;66.95;96059.09;5094938;28;1033;-69
2022/10/22 03:42:04;;;;;;;;;;;;;;;7.72;66.55;96056.44;5094810;28;984;-69
2022/10/22 03:44:30;;;;;;;;;;;;;;;8.02;65.04;96071.78;5094864;28;1913;-70
2022/10/22 03:46:56;;;;;;;;;;;;;;;7.99;64.85;96070.22;5094942;28;1036;-69
2022/10/22 03:49:22;;;;;;;;;;;;;;;7.86;65.24;96060.69;5094563;28;1053;-70
2022/10/22 03:51:48;;;;;;;;;;;;;;;7.65;66.12;96052.59;5110850;28;1260;-70
2022/10/22 03:54:15;;;;;;;;;;;;;;;7.85;65.55;96057.16;5114976;28;965;-69
2022/10/22 03:56:41;;;;;;;;;;;;;;;8.06;64.41;96056.41;5114933;28;992;-69
2022/10/22 03:59:07;;;;;;;;;;;;;;;8.02;64.11;96054.00;5114745;28;1137;-70
2022/10/22 04:01:33;;;;;;;;;;;;;;;7.84;64.62;96047.50;5114982;28;1071;-69
2022/10/22 04:03:59;;;;;;;;;;;;;;;8.08;63.51;96047.34;5114826;28;1906;-70
2022/10/22 04:06:25;;;;;;;;;;;;;;;8.18;62.82;96042.13;5114797;28;1024;-69
2022/10/22 04:08:51;;;;;;;;;;;;;;;7.99;63.67;96040.94;5114648;28;1046;-69
2022/10/22 04:11:17;;;;;;;;;;;;;;;7.87;64.37;96047.22;5114532;28;993;-69
2022/10/22 04:13:43;;;;;;;;;;;;;;;7.65;65.74;96041.94;5114774;28;973;-69
2022/10/22 04:16:10;;;;;;;;;;;;;;;7.37;67.01;96042.28;5114741;27;1008;-69
2022/10/22 04:18:36;;;;;;;;;;;;;;;7.63;66.39;96029.59;5114532;28;1108;-70
2022/10/22 04:21:03;;;;;;;;;;;;;;;7.74;65.38;96033.19;5114601;27;961;-69
2022/10/22 04:23:29;;;;;;;;;;;;;;;7.84;64.69;96036.84;5113195;28;1088;-69
2022/10/22 04:25:59;;;;;;;;;;;;;;;7.96;63.94;96030.50;5114263;28;1891;-69
2022/10/22 04:28:25;;;;;;;;;;;;;;;7.76;65.06;96033.97;5114545;28;961;-70
2022/10/22 04:30:51;;;;;;;;;;;;;;;7.60;65.77;96040.47;5114449;28;965;-69
2022/10/22 04:33:17;;;;;;;;;;;;;;;7.54;66.15;96045.44;5114111;28;945;-69
2022/10/22 04:35:43;;;;;;;;;;;;;;;7.49;66.21;96044.94;5114368;28;977;-69
2022/10/22 04:38:09;;;;;;;;;;;;;;;7.79;64.79;96050.50;5114154;28;996;-68
2022/10/22 04:40:35;;;;;;;;;;;;;;;7.90;64.06;96052.31;5114124;28;1009;-69
2022/10/22 04:43:02;;;;;;;;;;;;;;;7.75;64.31;96038.41;5113620;27;1025;-69
2022/10/22 04:45:28;;;;;;;;;;;;;;;7.83;64.07;96040.47;5113802;28;1909;-69
2022/10/22 04:47:54;;;;;;;;;;;;;;;7.46;65.99;96042.53;5114047;28;1216;-69
2022/10/22 04:50:20;;;;;;;;;;;;;;;7.38;66.13;96040.44;5108714;28;1299;-69
2022/10/22 04:52:46;;;;;;;;;;;;;;;7.18;67.37;96037.53;5093419;28;1231;-69
2022/10/22 04:55:12;;;;;;;;;;;;;;;7.48;66.10;96030.81;5092261;28;1045;-75
2022/10/22 04:57:38;;;;;;;;;;;;;;;7.68;65.32;96041.69;5093472;28;1138;-69
2022/10/22 05:00:05;;;;;;;;;;;;;;;7.88;63.85;96043.63;5093503;28;1081;-69
2022/10/22 05:02:31;;;;;;;;;;;;;;;7.78;63.88;96038.19;5093407;28;1112;-69
2022/10/22 05:04:57;;;;;;;;;;;;;;;7.64;64.87;96046.41;5093494;28;1998;-69
2022/10/22 05:07:24;;;;;;;;;;;;;;;7.74;64.52;96041.19;5093489;28;1032;-69
2022/10/22 05:09:50;;;;;;;;;;;;;;;7.42;66.09;96042.78;5093338;28;1112;-70
2022/10/22 05:12:16;;;;;;;;;;;;;;;7.68;65.42;96044.34;5092853;28;1115;-69
2022/10/22 05:14:42;;;;;;;;;;;;;;;7.58;65.83;96045.06;5092411;28;1040;-69
2022/10/22 05:17:08;;;;;;;;;;;;;;;7.59;65.86;96049.44;5093477;28;1058;-70
2022/10/22 05:19:34;;;;;;;;;;;;;;;7.78;65.12;96058.63;5093275;28;1239;-69
2022/10/22 05:22:01;;;;;;;;;;;;;;;8.02;64.07;96061.13;5093342;28;965;-70
2022/10/22 05:24:30;;;;;;;;;;;;;;;8.13;63.99;96057.63;5093152;28;1906;-70
2022/10/22 05:26:57;;;;;;;;;;;;;;;7.87;65.13;96065.88;5093483;28;991;-69
2022/10/22 05:29:24;;;;;;;;;;;;;;;7.79;65.64;96065.63;5092121;28;1051;-69
2022/10/22 05:31:50;;;;;;;;;;;;;;;7.69;66.07;96062.03;5093250;28;1128;-70
2022/10/22 05:34:16;;;;;;;;;;;;;;;7.98;65.07;96055.22;5093182;28;1064;-70
2022/10/22 05:36:42;;;;;;;;;;;;;;;8.17;65.01;96051.06;5093239;28;992;-69
2022/10/22 05:39:08;;;;;;;;;;;;;;;8.01;65.81;96049.66;5093001;28;1020;-71
2022/10/22 05:41:35;;;;;;;;;;;;;;;8.30;65.27;96054.44;5093387;28;965;-69
2022/10/22 05:44:02;;;;;;;;;;;;;;;8.53;64.68;96059.72;5093126;28;1985;-69
2022/10/22 05:46:30;;;;;;;;;;;;;;;8.58;64.85;96058.38;5093035;28;1064;-69
2022/10/22 05:49:01;;;;;;;;;;;;;;;8.52;65.73;96061.56;5093582;28;1007;-69
2022/10/22 05:51:27;;;;;;;;;;;;;;;8.80;65.25;96059.25;5107369;28;1446;-70
2022/10/22 05:53:55;;;;;;;;;;;;;;;9.00;64.90;96068.25;5114902;28;1032;-70
2022/10/22 05:56:22;;;;;;;;;;;;;;;9.00;65.35;96073.59;5117409;28;1059;-69
2022/10/22 05:58:48;;;;;;;;;;;;;;;9.06;66.18;96058.91;5117231;28;1064;-70
2022/10/22 06:01:17;;;;;;;;;;;;;;;9.29;65.56;96054.28;5117085;28;1073;-69
2022/10/22 06:03:43;;;;;;;;;;;;;;;9.40;65.35;96059.53;5117096;28;1905;-69
2022/10/22 06:06:15;;;;;;;;;;;;;;;9.33;66.16;96056.56;5117035;28;980;-70
2022/10/22 06:08:41;;;;;;;;;;;;;;;9.32;66.34;96068.19;5117077;28;1037;-68
2022/10/22 06:11:07;;;;;;;;;;;;;;;9.07;66.89;96069.44;5117098;28;984;-70
2022/10/22 06:13:33;;;;;;;;;;;;;;;9.18;66.26;96071.19;5116857;28;1194;-70
2022/10/22 06:16:00;;;;;;;;;;;;;;;9.37;65.28;96070.47;5116863;28;1064;-70
2022/10/22 06:18:26;;;;;;;;;;;;;;;9.15;66.33;96072.31;5115555;28;1533;-70
2022/10/22 06:20:52;;;;;;;;;;;;;;;9.31;65.83;96077.16;5116832;28;1080;-69
2022/10/22 06:23:18;;;;;;;;;;;;;;;9.40;65.30;96074.72;5116633;28;992;-69
2022/10/22 06:25:54;;;;;;;;;;;;;;;9.16;66.39;96084.69;5116561;28;1915;-69
2022/10/22 06:28:20;;;;;;;;;;;;;;;9.07;67.41;96082.78;5116927;28;1123;-69
2022/10/22 06:30:46;;;;;;;;;;;;;;;9.13;67.88;96082.25;5116584;28;1531;-70
2022/10/22 06:33:13;;;;;;;;;;;;;;;9.28;67.49;96082.78;5116628;28;1063;-70
2022/10/22 06:35:44;;;;;;;;;;;;;;;9.55;66.28;96084.91;5116229;28;1578;-70
2022/10/22 06:38:10;;;;;;;;;;;;;;;9.67;66.55;96082.16;5115100;28;1199;-70
2022/10/22 06:40:37;;;;;;;;;;;;;;;9.60;66.74;96071.19;5115200;28;1068;-70
2022/10/22 06:43:04;;;;;;;;;;;;;;;9.51;66.42;96066.63;5116516;28;976;-70
2022/10/22 06:45:31;;;;;;;;;;;;;;;9.70;66.79;96076.56;5116334;28;1981;-70
2022/10/22 06:47:57;;;;;;;;;;;;;;;10.04;66.08;96068.28;5116385;28;1037;-70
2022/10/22 06:50:23;;;;;;;;;;;;;;;10.19;65.82;96074.06;5110198;28;1291;-73
2022/10/22 06:52:49;;;;;;;;;;;;;;;10.33;65.66;96090.59;5095678;28;1255;-68
2022/10/22 06:55:16;;;;;;;;;;;;;;;10.37;65.93;96088.50;5095832;28;1056;-70
2022/10/22 06:57:42;;;;;;;;;;;;;;;10.55;64.61;96083.34;5095637;28;1035;-70
2022/10/22 07:00:08;;;;;;;;;;;;;;;10.70;64.93;96094.50;5094628;28;1614;-70
2022/10/22 07:02:34;;;;;;;;;;;;;;;10.71;65.35;96088.16;5095662;28;1048;-69
2022/10/22 07:05:00;;;;;;;;;;;;;;;10.70;65.40;96081.13;5094720;28;1902;-69
2022/10/22 07:07:27;;;;;;;;;;;;;;;10.90;65.02;96076.63;5095627;28;1045;-69
2022/10/22 07:09:53;;;;;;;;;;;;;;;10.97;65.00;96082.28;5095742;28;1035;-70
2022/10/22 07:12:19;;;;;;;;;;;;;;;11.01;65.29;96081.00;5095504;28;1045;-69
2022/10/22 07:14:45;;;;;;;;;;;;;;;11.07;65.27;96075.06;5095415;28;1092;-69
2022/10/22 07:17:11;;;;;;;;;;;;;;;11.18;65.02;96080.28;5095396;28;1124;-70
2022/10/22 07:19:37;;;;;;;;;;;;;;;11.14;65.27;96084.22;5095400;28;1159;-69
2022/10/22 07:22:03;;;;;;;;;;;;;;;11.28;65.16;96088.31;5095356;28;1089;-69
2022/10/22 07:24:29;;;;;;;;;;;;;;;11.32;65.15;96082.53;5095350;28;1906;-69
2022/10/22 07:26:55;;;;;;;;;;;;;;;11.44;64.88;96085.03;5095330;28;1052;-69
2022/10/22 07:29:21;;;;;;;;;;;;;;;11.69;64.51;96075.56;5095250;28;1019;-69
2022/10/22 07:31:47;;;;;;;;;;;;;;;11.78;64.71;96081.84;5095216;28;1042;-69
2022/10/22 07:34:13;;;;;;;;;;;;;;;11.85;63.73;96074.91;5095033;28;1052;-69
2022/10/22 07:36:39;;;;;;;;;;;;;;;11.86;64.08;96084.66;5094958;28;1104;-69
2022/10/22 07:39:05;;;;;;;;;;;;;;;11.98;64.30;96078.16;5095161;28;1032;-69
2022/10/22 07:41:31;;;;;;;;;;;;;;;12.07;63.95;96079.94;5094966;28;1045;-69
2022/10/22 07:43:58;;;;;;;;;;;;;;;12.04;63.62;96082.91;5095018;28;2036;-69
2022/10/22 07:46:24;;;;;;;;;;;;;;;12.15;63.41;96079.22;5094823;28;1037;-68
2022/10/22 07:48:50;;;;;;;;;;;;;;;12.24;62.91;96083.69;5094825;28;999;-69
2022/10/22 07:51:17;;;;;;;;;;;;;;;12.34;62.51;96072.91;5107790;28;1578;-68
2022/10/22 07:53:43;;;;;;;;;;;;;;;12.53;61.52;96074.63;5113857;28;1328;-68
2022/10/22 07:56:09;;;;;;;;;;;;;;;12.68;61.30;96074.97;5114963;28;1057;-68
2022/10/22 07:58:35;;;;;;;;;;;;;;;12.97;60.57;96066.69;5115049;28;1213;-68
2022/10/22 08:01:04;;;;;;;;;;;;;;;13.07;60.35;96070.16;5114975;28;1135;-68
2022/10/22 08:03:30;;;;;;;;;;;;;;;12.86;61.26;96065.09;5114775;28;985;-68
2022/10/22 08:05:57;;;;;;;;;;;;;;;12.66;62.00;96066.22;5114841;28;1990;-68
2022/10/22 08:08:23;;;;;;;;;;;;;;;12.76;61.73;96064.31;5114892;27;1040;-68
2022/10/22 08:10:51;;;;;;;;;;;;;;;13.37;60.74;96064.53;5114815;28;1127;-69
2022/10/22 08:13:18;;;;;;;;;;;;;;;13.64;59.58;96052.84;5114661;28;1109;-68
2022/10/22 08:15:45;;;;;;;;;;;;;;;13.51;59.86;96055.94;5114658;28;1550;-68
2022/10/22 08:18:11;;;;;;;;;;;;;;;13.38;60.22;96044.75;5114572;28;1080;-68
2022/10/22 08:20:38;;;;;;;;;;;;;;;13.21;59.60;96047.28;5114847;28;980;-68
2022/10/22 08:23:04;;;;;;;;;;;;;;;13.12;59.30;96037.47;5114636;28;1104;-68
2022/10/22 08:25:31;;;;;;;;;;;;;;;13.54;58.29;96035.94;5114570;28;1917;-68
2022/10/22 08:27:57;;;;;;;;;;;;;;;14.02;57.16;96026.50;5114625;27;1104;-68
2022/10/22 08:30:26;;;;;;;;;;;;;;;14.44;55.35;96033.72;5114460;28;1031;-68
2022/10/22 08:32:52;;;;;;;;;;;;;;;14.74;54.95;96031.44;5114462;28;1375;-68
2022/10/22 08:35:19;;;;;;;;;;;;;;;14.98;54.26;96036.88;5114215;28;1222;-69
2022/10/22 08:37:45;;;;;;;;;;;;;;;15.23;54.38;96040.44;5114458;28;980;-69
2022/10/22 08:40:20;;;;;;;;;;;;;;;15.45;54.04;96035.38;5114226;28;1128;-69
2022/10/22 08:42:52;;;;;;;;;;;;;;;15.91;52.14;96026.72;5114411;28;1015;-69
2022/10/22 08:45:29;;;;;;;;;;;;;;;16.00;52.23;96034.59;5113975;28;1990;-68
2022/10/22 08:51:20;;;;;;;;;;;;;;;16.41;51.19;96052.53;5100870;28;1527;-69
2022/10/22 08:54:00;;;;;;;;;;;;;;;16.59;50.93;96055.78;5126280;27;1248;-69
2022/10/22 08:56:29;;;;;;;;;;;;;;;16.70;50.51;96057.25;5093785;28;1055;-69
2022/10/22 08:59:03;;;;;;;;;;;;;;;16.75;51.33;96052.19;5092636;28;1595;-69
2022/10/22 09:01:35;;;;;;;;;;;;;;;16.77;51.07;96050.13;5093511;28;1084;-69
2022/10/22 09:04:24;;;;;;;;;;;;;;;17.01;49.88;96053.72;5093582;28;1902;-69
2022/10/22 09:06:51;;;;;;;;;;;;;;;17.32;49.20;96050.97;5093924;28;965;-68
2022/10/22 09:09:18;;;;;;;;;;;;;;;17.44;48.22;96045.97;5093672;28;1048;-69
2022/10/22 09:11:45;;;;;;;;;;;;;;;18.02;47.35;96040.91;5093690;28;1060;-71
2022/10/22 09:14:15;;;;;;;;;;;;;;;18.23;46.46;96036.56;5093491;28;1040;-68
2022/10/22 09:17:10;;;;;;;;;;;;;;;18.58;45.97;96034.13;5093483;28;1113;-68
2022/10/22 09:20:09;;;;;;;;;;;;;;;18.52;45.63;96030.31;5038759;28;1158;-70
2022/10/22 09:22:42;;;;;;;;;;;;;;;18.43;46.73;96010.59;5059714;28;1351;-69
2022/10/22 09:25:15;;;;;;;;;;;;;;;18.46;46.83;96004.81;5093345;28;1987;-69
2022/10/22 09:27:41;;;;;;;;;;;;;;;18.33;46.69;95996.53;5093657;28;1056;-69
2022/10/22 09:30:13;;;;;;;;;;;;;;;18.16;47.35;95997.78;5097306;28;1224;-69
2022/10/22 09:32:39;;;;;;;;;;;;;;;18.17;47.84;95992.16;5097637;28;1028;-69
2022/10/22 09:35:08;;;;;;;;;;;;;;;17.97;47.99;95986.50;5097513;28;1047;-69
2022/10/22 09:37:34;;;;;;;;;;;;;;;17.62;48.23;95982.59;5097448;28;992;-69
2022/10/22 09:40:03;;;;;;;;;;;;;;;17.41;49.35;95977.91;5097351;28;1116;-69
2022/10/22 09:42:32;;;;;;;;;;;;;;;17.05;50.85;95975.84;5097394;28;1020;-69
2022/10/22 09:44:58;;;;;;;;;;;;;;;16.75;51.68;95976.56;5097291;28;1905;-69
2022/10/22 09:47:30;;;;;;;;;;;;;;;16.45;53.05;95966.59;5097226;28;961;-69
2022/10/22 09:50:11;;;;;;;;;;;;;;;16.03;53.76;95962.44;5098968;28;1618;-69
2022/10/22 09:52:38;;;;;;;;;;;;;;;15.76;54.96;95962.72;5117316;28;1111;-69
2022/10/22 09:55:12;;;;;;;;;;;;;;;15.65;54.79;95946.91;5117529;28;1108;-69
2022/10/22 09:57:38;;;;;;;;;;;;;;;15.65;55.34;95954.97;5117600;28;1048;-69
2022/10/22 10:00:07;;;;;;;;;;;;;;;15.61;55.60;95950.94;5117468;28;1275;-69
2022/10/22 10:02:34;;;;;;;;;;;;;;;15.66;55.94;95940.47;5117338;28;1260;-69
2022/10/22 10:05:02;;;;;;;;;;;;;;;15.74;55.02;95943.16;5117187;28;1910;-69
2022/10/22 10:07:31;;;;;;;;;;;;;;;15.77;55.23;95928.50;5117152;28;1143;-69
2022/10/22 10:09:58;;;;;;;;;;;;;;;15.87;54.88;95934.53;5117322;28;1009;-69
2022/10/22 10:12:31;;;;;;;;;;;;;;;15.92;55.22;95931.31;5117184;28;1039;-68
2022/10/22 10:15:12;;;;;;;;;;;;;;;15.94;55.37;95932.81;5117067;28;1112;-69
2022/10/22 10:17:57;;;;;;;;;;;;;;;15.97;54.79;95920.81;5117301;28;1057;-69
2022/10/22 10:20:29;;;;;;;;;;;;;;;16.03;55.63;95927.38;5116905;28;976;-69
2022/10/22 10:23:04;;;;;;;;;;;;;;;16.03;55.71;95930.94;5117008;28;1004;-69
2022/10/22 10:25:45;;;;;;;;;;;;;;;16.05;54.91;95925.34;5116714;28;1914;-69
2022/10/22 10:28:15;;;;;;;;;;;;;;;16.10;54.90;95914.88;5116953;28;1051;-69
2022/10/22 10:30:50;;;;;;;;;;;;;;;16.23;54.77;95914.31;5116980;28;1032;-69
2022/10/22 10:33:16;;;;;;;;;;;;;;;16.30;54.49;95904.47;5116738;28;1037;-69
2022/10/22 10:35:45;;;;;;;;;;;;;;;16.26;54.22;95904.00;5116767;28;1077;-74
2022/10/22 10:38:30;;;;;;;;;;;;;;;16.24;55.04;95892.53;5116504;28;1024;-73
2022/10/22 10:41:03;;;;;;;;;;;;;;;16.27;55.57;95902.13;5115527;28;1032;-70
2022/10/22 10:43:35;;;;;;;;;;;;;;;16.29;54.30;95895.53;5116666;28;1048;-71
2022/10/22 10:46:32;;;;;;;;;;;;;;;16.31;54.82;95901.59;5116554;28;1909;-71
2022/10/22 10:48:59;;;;;;;;;;;;;;;16.40;54.43;95887.03;5103440;28;1299;-70
2022/10/22 10:51:34;;;;;;;;;;;;;;;16.44;53.67;95876.72;5101875;28;1672;-71
2022/10/22 10:54:26;;;;;;;;;;;;;;;16.48;54.67;95877.19;5095928;28;1128;-71
2022/10/22 10:57:07;;;;;;;;;;;;;;;16.50;54.89;95875.97;5091167;28;1229;-71
2022/10/22 10:59:42;;;;;;;;;;;;;;;16.45;55.17;95875.69;5095870;28;1265;-71
2022/10/22 11:02:20;;;;;;;;;;;;;;;16.56;55.53;95866.31;5095851;28;1005;-71
2022/10/22 11:04:49;;;;;;;;;;;;;;;16.65;55.41;95859.00;5095775;28;1997;-71
2022/10/22 11:07:17;;;;;;;;;;;;;;;16.75;55.08;95862.28;5095670;28;993;-70
2022/10/22 11:09:48;;;;;;;;;;;;;;;16.81;54.78;95847.22;5095645;28;1072;-71
2022/10/22 11:12:21;;;;;;;;;;;;;;;16.82;55.55;95848.91;5095774;28;1023;-71
2022/10/22 11:14:55;;;;;;;;;;;;;;;16.89;54.81;95834.50;5095735;28;959;-71
2022/10/22 11:17:23;;;;;;;;;;;;;;;16.90;55.59;95830.81;5095596;28;973;-71
2022/10/22 11:19:55;;;;;;;;;;;;;;;16.98;54.86;95824.47;5095489;28;1047;-71
2022/10/22 11:22:24;;;;;;;;;;;;;;;17.02;55.84;95825.78;5095574;28;1044;-72
2022/10/22 11:25:09;;;;;;;;;;;;;;;17.00;55.60;95818.88;5095487;28;1968;-72
2022/10/22 11:27:36;;;;;;;;;;;;;;;17.03;55.85;95824.75;5095382;28;1044;-71
2022/10/22 11:30:04;;;;;;;;;;;;;;;17.03;55.94;95813.09;5095287;28;981;-71
2022/10/22 11:32:30;;;;;;;;;;;;;;;17.07;55.41;95800.91;5095082;28;949;-71
2022/10/22 11:34:58;;;;;;;;;;;;;;;17.20;55.52;95789.44;5095030;28;1446;-71
2022/10/22 11:37:29;;;;;;;;;;;;;;;17.25;55.39;95785.16;5095211;28;1185;-71
2022/10/22 11:40:01;;;;;;;;;;;;;;;17.40;55.10;95784.31;5095112;28;1132;-72
2022/10/22 11:42:32;;;;;;;;;;;;;;;17.51;55.04;95783.81;5095009;28;1104;-71
2022/10/22 11:45:04;;;;;;;;;;;;;;;17.45;53.99;95779.16;5094831;28;1922;-71
2022/10/22 11:47:32;;;;;;;;;;;;;;;17.46;54.67;95780.88;5094561;28;1197;-71
2022/10/22 11:50:15;;;;;;;;;;;;;;;17.62;54.12;95772.50;5094727;28;1646;-71
2022/10/22 11:52:48;;;;;;;;;;;;;;;17.69;54.72;95775.31;5094457;28;1081;-71
2022/10/22 11:55:37;;;;;;;;;;;;;;;17.75;53.62;95766.44;5094771;28;1172;-71
2022/10/22 11:58:23;;;;;;;;;;;;;;;17.69;53.98;95767.19;5086701;28;1154;-71
2022/10/22 12:00:49;;;;;;;;;;;;;;;17.80;53.55;95763.16;5094566;28;1089;-72
2022/10/22 12:03:23;;;;;;;;;;;;;;;17.89;53.08;95753.91;5094488;28;1124;-71
2022/10/22 12:06:18;;;;;;;;;;;;;;;17.89;53.89;95752.06;5094544;28;1984;-72
2022/10/22 12:08:44;;;;;;;;;;;;;;;17.91;53.55;95751.88;5088663;28;1255;-71
2022/10/22 12:11:10;;;;;;;;;;;;;;;17.93;52.81;95750.66;5094537;28;973;-71
2022/10/22 12:13:49;;;;;;;;;;;;;;;17.98;53.63;95752.75;5094429;28;1062;-71
2022/10/22 12:16:15;;;;;;;;;;;;;;;18.02;53.31;95743.25;5094147;28;1053;-71
2022/10/22 12:18:43;;;;;;;;;;;;;;;18.08;52.51;95736.19;5094224;28;1073;-71
2022/10/22 12:21:13;;;;;;;;;;;;;;;18.16;52.86;95727.97;5094398;28;1129;-71
2022/10/22 12:23:39;;;;;;;;;;;;;;;18.13;53.12;95726.47;5094273;28;1116;-71
2022/10/22 12:26:05;;;;;;;;;;;;;;;18.20;52.00;95733.84;5094130;28;1954;-71
2022/10/22 12:28:39;;;;;;;;;;;;;;;18.21;52.49;95728.25;5094215;28;1047;-71
2022/10/22 12:31:05;;;;;;;;;;;;;;;18.20;51.87;95717.59;5094101;28;1020;-71
2022/10/22 12:33:31;;;;;;;;;;;;;;;18.18;52.49;95715.09;5094225;28;1016;-71
2022/10/22 12:36:02;;;;;;;;;;;;;;;18.24;51.41;95719.72;5094166;28;1154;-71
2022/10/22 12:38:29;;;;;;;;;;;;;;;18.33;51.53;95712.28;5093951;28;1049;-71
2022/10/22 12:40:56;;;;;;;;;;;;;;;18.33;51.80;95705.00;5094100;28;1049;-71
2022/10/22 12:43:26;;;;;;;;;;;;;;;18.38;50.63;95703.56;5093893;28;1087;-72
2022/10/22 12:45:53;;;;;;;;;;;;;;;18.48;51.24;95709.50;5094012;28;1988;-71
2022/10/22 12:48:19;;;;;;;;;;;;;;;18.48;51.02;95704.09;5093738;28;1085;-71
2022/10/22 12:50:50;;;;;;;;;;;;;;;18.52;50.75;95700.78;5102548;28;1370;-71
2022/10/22 12:53:29;;;;;;;;;;;;;;;18.57;50.86;95692.03;5113930;28;1119;-72
2022/10/22 12:55:59;;;;;;;;;;;;;;;18.56;50.26;95689.56;5114227;28;1004;-72
2022/10/22 12:58:27;;;;;;;;;;;;;;;18.64;51.03;95686.69;5114297;28;976;-72
2022/10/22 13:00:56;;;;;;;;;;;;;;;18.66;50.98;95688.16;5114045;28;1057;-71
2022/10/22 13:03:25;;;;;;;;;;;;;;;18.69;50.78;95689.66;5113042;28;1541;-71
2022/10/22 13:05:51;;;;;;;;;;;;;;;18.65;49.92;95685.66;5112870;28;1910;-72
2022/10/22 13:08:20;;;;;;;;;;;;;;;18.73;50.37;95678.22;5112763;28;1104;-71
2022/10/22 13:10:51;;;;;;;;;;;;;;;18.75;50.56;95672.59;5113930;28;1059;-71
2022/10/22 13:13:40;;;;;;;;;;;;;;;18.73;51.09;95675.50;5114103;28;968;-71
2022/10/22 13:16:13;;;;;;;;;;;;;;;18.75;51.57;95677.19;5114026;28;1015;-72
2022/10/22 13:18:39;;;;;;;;;;;;;;;18.78;51.10;95674.06;5113877;28;1061;-72
2022/10/22 13:21:05;;;;;;;;;;;;;;;18.77;50.59;95669.69;5112617;28;801;-72